sensor_id;sensor_type;location;lat;lon;timestamp;temperature;humidity
53802;DHT22;39709;53.334;6.534;2023-03-01T00:01:12;-0.40;99.90
53802;DHT22;39709;53.334;6.534;2023-03-01T00:03:38;-0.20;99.90
53802;DHT22;39709;53.334;6.534;2023-03-01T00:06:05;0.30;99.90
53802;DHT22;39709;53.334;6.534;2023-03-01T00:08:32;-0.50;99.90
53802;DHT22;39709;53.334;6.534;2023-03-01T00:13:45;0.10;99.90
53802;DHT22;39709;53.334;6.534;2023-03-01T00:16:46;0.30;99.90
53802;DHT22;39709;53.334;6.534;2023-03-01T00:19:07;0.30;99.90
53802;DHT22;39709;53.334;6.534;2023-03-01T00:21:33;0.30;99.90
53802;DHT22;39709;53.334;6.534;2023-03-01T00:24:01;0.30;99.90
53802;DHT22;39709;53.334;6.534;2023-03-01T00:26:27;0.60;99.90
53802;DHT22;39709;53.334;6.534;2023-03-01T00:28:54;0.30;99.90
53802;DHT22;39709;53.334;6.534;2023-03-01T00:31:26;0.20;99.90
53802;DHT22;39709;53.334;6.534;2023-03-01T00:33:53;0.20;99.90
53802;DHT22;39709;53.334;6.534;2023-03-01T00:36:34;0.00;99.90
53802;DHT22;39709;53.334;6.534;2023-03-01T00:39:00;-0.80;99.90
53802;DHT22;39709;53.334;6.534;2023-03-01T00:41:26;0.10;99.90
53802;DHT22;39709;53.334;6.534;2023-03-01T00:43:53;-0.90;99.90
53802;DHT22;39709;53.334;6.534;2023-03-01T00:46:21;0.10;99.90
53802;DHT22;39709;53.334;6.534;2023-03-01T00:48:47;0.20;99.90
53802;DHT22;39709;53.334;6.534;2023-03-01T00:51:16;-0.10;99.90
53802;DHT22;39709;53.334;6.534;2023-03-01T00:53:42;0.20;99.90
53802;DHT22;39709;53.334;6.534;2023-03-01T00:56:10;0.10;99.90
53802;DHT22;39709;53.334;6.534;2023-03-01T00:58:36;-0.70;99.90
53802;DHT22;39709;53.334;6.534;2023-03-01T01:01:14;0.10;99.90
53802;DHT22;39709;53.334;6.534;2023-03-01T01:03:54;-0.40;99.90
53802;DHT22;39709;53.334;6.534;2023-03-01T01:06:29;0.30;99.90
53802;DHT22;39709;53.334;6.534;2023-03-01T01:08:55;-1.00;99.90
53802;DHT22;39709;53.334;6.534;2023-03-01T01:11:22;-0.10;99.90
53802;DHT22;39709;53.334;6.534;2023-03-01T01:13:49;-0.10;99.90
53802;DHT22;39709;53.334;6.534;2023-03-01T01:16:16;-0.50;99.90
53802;DHT22;39709;53.334;6.534;2023-03-01T01:18:43;-0.20;99.90
53802;DHT22;39709;53.334;6.534;2023-03-01T01:21:11;-1.00;99.90
53802;DHT22;39709;53.334;6.534;2023-03-01T01:23:38;-0.70;99.90
53802;DHT22;39709;53.334;6.534;2023-03-01T01:26:06;-1.30;99.90
53802;DHT22;39709;53.334;6.534;2023-03-01T01:28:32;-1.00;99.90
53802;DHT22;39709;53.334;6.534;2023-03-01T01:30:58;-1.40;99.90
53802;DHT22;39709;53.334;6.534;2023-03-01T01:33:24;0.40;99.90
53802;DHT22;39709;53.334;6.534;2023-03-01T01:35:50;-0.90;99.90
53802;DHT22;39709;53.334;6.534;2023-03-01T01:38:15;-0.30;99.90
53802;DHT22;39709;53.334;6.534;2023-03-01T01:40:48;-0.40;99.90
53802;DHT22;39709;53.334;6.534;2023-03-01T01:43:42;-0.40;99.90
53802;DHT22;39709;53.334;6.534;2023-03-01T01:46:28;-1.10;99.90
53802;DHT22;39709;53.334;6.534;2023-03-01T01:49:00;-0.50;99.90
53802;DHT22;39709;53.334;6.534;2023-03-01T01:51:35;-1.30;99.90
53802;DHT22;39709;53.334;6.534;2023-03-01T01:54:10;-0.90;99.90
53802;DHT22;39709;53.334;6.534;2023-03-01T01:56:40;-0.70;99.90
53802;DHT22;39709;53.334;6.534;2023-03-01T01:59:07;-1.30;99.90
53802;DHT22;39709;53.334;6.534;2023-03-01T02:01:34;-0.90;99.90
53802;DHT22;39709;53.334;6.534;2023-03-01T02:03:59;-1.60;99.90
53802;DHT22;39709;53.334;6.534;2023-03-01T02:06:36;-1.30;99.90
53802;DHT22;39709;53.334;6.534;2023-03-01T02:09:07;-1.20;99.90
53802;DHT22;39709;53.334;6.534;2023-03-01T02:11:36;-1.50;99.90
53802;DHT22;39709;53.334;6.534;2023-03-01T02:14:03;-1.50;99.90
53802;DHT22;39709;53.334;6.534;2023-03-01T02:16:29;-1.80;99.90
53802;DHT22;39709;53.334;6.534;2023-03-01T02:18:57;-2.20;99.90
53802;DHT22;39709;53.334;6.534;2023-03-01T02:21:41;-1.60;99.90
53802;DHT22;39709;53.334;6.534;2023-03-01T02:26:55;-1.20;99.90
53802;DHT22;39709;53.334;6.534;2023-03-01T02:29:23;-1.30;99.90
53802;DHT22;39709;53.334;6.534;2023-03-01T02:31:51;-1.70;99.90
53802;DHT22;39709;53.334;6.534;2023-03-01T02:34:21;-0.20;99.90
53802;DHT22;39709;53.334;6.534;2023-03-01T02:36:49;-1.20;99.90
53802;DHT22;39709;53.334;6.534;2023-03-01T02:39:30;-1.80;99.90
53802;DHT22;39709;53.334;6.534;2023-03-01T02:41:58;-1.30;99.90
53802;DHT22;39709;53.334;6.534;2023-03-01T02:44:25;-1.60;99.90
53802;DHT22;39709;53.334;6.534;2023-03-01T02:46:53;-1.10;99.90
53802;DHT22;39709;53.334;6.534;2023-03-01T02:49:28;-1.10;99.90
53802;DHT22;39709;53.334;6.534;2023-03-01T02:52:47;-1.70;99.90
53802;DHT22;39709;53.334;6.534;2023-03-01T02:55:08;-1.40;99.90
53802;DHT22;39709;53.334;6.534;2023-03-01T02:57:37;-1.80;99.90
53802;DHT22;39709;53.334;6.534;2023-03-01T03:00:13;-1.80;99.90
53802;DHT22;39709;53.334;6.534;2023-03-01T03:02:49;-1.20;99.90
53802;DHT22;39709;53.334;6.534;2023-03-01T03:05:35;-1.00;99.90
53802;DHT22;39709;53.334;6.534;2023-03-01T03:08:02;-1.50;99.90
53802;DHT22;39709;53.334;6.534;2023-03-01T03:10:31;-2.00;99.90
53802;DHT22;39709;53.334;6.534;2023-03-01T03:13:05;-1.00;99.90
53802;DHT22;39709;53.334;6.534;2023-03-01T03:15:32;-1.40;99.90
53802;DHT22;39709;53.334;6.534;2023-03-01T03:18:03;-2.00;99.90
53802;DHT22;39709;53.334;6.534;2023-03-01T03:20:30;-2.10;99.90
53802;DHT22;39709;53.334;6.534;2023-03-01T03:22:57;-1.20;99.90
53802;DHT22;39709;53.334;6.534;2023-03-01T03:25:27;-2.00;99.90
53802;DHT22;39709;53.334;6.534;2023-03-01T03:27:54;-1.90;99.90
53802;DHT22;39709;53.334;6.534;2023-03-01T03:30:32;-1.80;99.90
53802;DHT22;39709;53.334;6.534;2023-03-01T03:32:59;-2.00;99.90
53802;DHT22;39709;53.334;6.534;2023-03-01T03:35:30;-2.60;99.90
53802;DHT22;39709;53.334;6.534;2023-03-01T03:37:58;-2.60;99.90
53802;DHT22;39709;53.334;6.534;2023-03-01T03:40:44;-0.80;99.90
53802;DHT22;39709;53.334;6.534;2023-03-01T03:43:13;-1.70;99.90
53802;DHT22;39709;53.334;6.534;2023-03-01T03:45:39;-2.50;99.90
53802;DHT22;39709;53.334;6.534;2023-03-01T03:48:06;-2.60;99.90
53802;DHT22;39709;53.334;6.534;2023-03-01T03:50:32;-2.00;99.90
53802;DHT22;39709;53.334;6.534;2023-03-01T03:53:01;-2.60;99.90
53802;DHT22;39709;53.334;6.534;2023-03-01T03:55:27;-2.50;99.90
53802;DHT22;39709;53.334;6.534;2023-03-01T03:57:57;-1.60;99.90
53802;DHT22;39709;53.334;6.534;2023-03-01T04:00:24;-2.60;99.90
53802;DHT22;39709;53.334;6.534;2023-03-01T04:02:50;-1.70;99.90
53802;DHT22;39709;53.334;6.534;2023-03-01T04:05:17;-2.40;99.90
53802;DHT22;39709;53.334;6.534;2023-03-01T04:07:44;-1.60;99.90
53802;DHT22;39709;53.334;6.534;2023-03-01T04:10:16;-2.40;99.90
53802;DHT22;39709;53.334;6.534;2023-03-01T04:12:42;-1.60;99.90
53802;DHT22;39709;53.334;6.534;2023-03-01T04:15:09;-2.40;99.90
53802;DHT22;39709;53.334;6.534;2023-03-01T04:17:45;-1.70;99.90
53802;DHT22;39709;53.334;6.534;2023-03-01T04:20:15;-2.60;99.90
53802;DHT22;39709;53.334;6.534;2023-03-01T04:22:43;-2.00;99.90
53802;DHT22;39709;53.334;6.534;2023-03-01T04:25:12;-1.80;99.90
53802;DHT22;39709;53.334;6.534;2023-03-01T04:27:39;-2.20;99.90
53802;DHT22;39709;53.334;6.534;2023-03-01T04:30:06;-2.70;99.90
53802;DHT22;39709;53.334;6.534;2023-03-01T04:32:32;-2.80;99.90
53802;DHT22;39709;53.334;6.534;2023-03-01T04:34:58;-2.60;99.90
53802;DHT22;39709;53.334;6.534;2023-03-01T04:37:23;-2.40;99.90
53802;DHT22;39709;53.334;6.534;2023-03-01T04:39:49;-2.80;99.90
53802;DHT22;39709;53.334;6.534;2023-03-01T04:42:15;-2.00;99.90
53802;DHT22;39709;53.334;6.534;2023-03-01T04:44:42;-1.90;99.90
53802;DHT22;39709;53.334;6.534;2023-03-01T04:47:08;-1.90;99.90
53802;DHT22;39709;53.334;6.534;2023-03-01T04:49:34;-1.90;99.90
53802;DHT22;39709;53.334;6.534;2023-03-01T04:52:00;-2.00;99.90
53802;DHT22;39709;53.334;6.534;2023-03-01T04:54:28;-2.50;99.90
53802;DHT22;39709;53.334;6.534;2023-03-01T04:56:54;-2.60;99.90
53802;DHT22;39709;53.334;6.534;2023-03-01T04:59:20;-2.80;99.90
53802;DHT22;39709;53.334;6.534;2023-03-01T05:01:49;-2.50;99.90
53802;DHT22;39709;53.334;6.534;2023-03-01T05:04:14;-2.70;99.90
53802;DHT22;39709;53.334;6.534;2023-03-01T05:06:40;-3.00;99.90
53802;DHT22;39709;53.334;6.534;2023-03-01T05:09:06;-2.10;99.90
53802;DHT22;39709;53.334;6.534;2023-03-01T05:11:32;-2.30;99.90
53802;DHT22;39709;53.334;6.534;2023-03-01T05:14:02;-3.10;99.90
53802;DHT22;39709;53.334;6.534;2023-03-01T05:16:28;-2.60;99.90
53802;DHT22;39709;53.334;6.534;2023-03-01T05:18:53;-2.20;99.90
53802;DHT22;39709;53.334;6.534;2023-03-01T05:21:21;-3.20;99.90
53802;DHT22;39709;53.334;6.534;2023-03-01T05:23:47;-2.30;99.90
53802;DHT22;39709;53.334;6.534;2023-03-01T05:26:13;-2.40;99.90
53802;DHT22;39709;53.334;6.534;2023-03-01T05:28:39;-2.30;99.90
53802;DHT22;39709;53.334;6.534;2023-03-01T05:31:05;-3.00;99.90
53802;DHT22;39709;53.334;6.534;2023-03-01T05:33:39;-3.00;99.90
53802;DHT22;39709;53.334;6.534;2023-03-01T05:36:06;-2.70;99.90
53802;DHT22;39709;53.334;6.534;2023-03-01T05:38:33;-3.10;99.90
53802;DHT22;39709;53.334;6.534;2023-03-01T05:40:59;-2.60;99.90
53802;DHT22;39709;53.334;6.534;2023-03-01T05:43:25;-3.10;99.90
53802;DHT22;39709;53.334;6.534;2023-03-01T05:45:50;-2.70;99.90
53802;DHT22;39709;53.334;6.534;2023-03-01T05:48:16;-2.30;99.90
53802;DHT22;39709;53.334;6.534;2023-03-01T05:50:45;-3.20;99.90
53802;DHT22;39709;53.334;6.534;2023-03-01T05:53:18;-2.60;99.90
53802;DHT22;39709;53.334;6.534;2023-03-01T05:55:45;-2.80;99.90
53802;DHT22;39709;53.334;6.534;2023-03-01T05:58:17;-2.40;99.90
53802;DHT22;39709;53.334;6.534;2023-03-01T06:00:46;-2.70;99.90
53802;DHT22;39709;53.334;6.534;2023-03-01T06:03:15;-2.40;99.90
53802;DHT22;39709;53.334;6.534;2023-03-01T06:05:41;-2.30;99.90
53802;DHT22;39709;53.334;6.534;2023-03-01T06:08:08;-2.20;99.90
53802;DHT22;39709;53.334;6.534;2023-03-01T06:10:34;-2.70;99.90
53802;DHT22;39709;53.334;6.534;2023-03-01T06:13:00;-2.90;99.90
53802;DHT22;39709;53.334;6.534;2023-03-01T06:15:26;-2.10;99.90
53802;DHT22;39709;53.334;6.534;2023-03-01T06:17:54;-3.00;99.90
53802;DHT22;39709;53.334;6.534;2023-03-01T06:20:24;-2.30;99.90
53802;DHT22;39709;53.334;6.534;2023-03-01T06:22:49;-3.00;99.90
53802;DHT22;39709;53.334;6.534;2023-03-01T06:25:18;-3.10;99.90
53802;DHT22;39709;53.334;6.534;2023-03-01T06:27:44;-2.40;99.90
53802;DHT22;39709;53.334;6.534;2023-03-01T06:30:12;-2.40;99.90
53802;DHT22;39709;53.334;6.534;2023-03-01T06:32:40;-2.60;99.90
53802;DHT22;39709;53.334;6.534;2023-03-01T06:35:13;-2.60;97.40
53802;DHT22;39709;53.334;6.534;2023-03-01T06:37:40;-3.50;97.30
53802;DHT22;39709;53.334;6.534;2023-03-01T06:40:07;-2.70;99.90
53802;DHT22;39709;53.334;6.534;2023-03-01T06:42:47;-2.70;99.30
53802;DHT22;39709;53.334;6.534;2023-03-01T06:45:16;-3.10;96.70
53802;DHT22;39709;53.334;6.534;2023-03-01T06:47:42;-2.30;98.90
53802;DHT22;39709;53.334;6.534;2023-03-01T06:50:08;-2.70;98.60
53802;DHT22;39709;53.334;6.534;2023-03-01T06:52:34;-2.70;98.00
53802;DHT22;39709;53.334;6.534;2023-03-01T06:55:00;-3.40;99.60
53802;DHT22;39709;53.334;6.534;2023-03-01T06:57:26;-2.60;99.90
53802;DHT22;39709;53.334;6.534;2023-03-01T06:59:52;-3.30;99.90
53802;DHT22;39709;53.334;6.534;2023-03-01T07:02:18;-1.90;99.90
53802;DHT22;39709;53.334;6.534;2023-03-01T07:04:44;-3.20;99.90
53802;DHT22;39709;53.334;6.534;2023-03-01T07:07:10;-2.60;99.90
53802;DHT22;39709;53.334;6.534;2023-03-01T07:09:35;-2.60;99.90
53802;DHT22;39709;53.334;6.534;2023-03-01T07:12:02;-2.90;98.40
53802;DHT22;39709;53.334;6.534;2023-03-01T07:14:27;-2.70;95.60
53802;DHT22;39709;53.334;6.534;2023-03-01T07:16:53;-3.30;96.60
53802;DHT22;39709;53.334;6.534;2023-03-01T07:19:20;-2.50;99.90
53802;DHT22;39709;53.334;6.534;2023-03-01T07:21:45;-2.80;99.90
53802;DHT22;39709;53.334;6.534;2023-03-01T07:24:11;-2.60;99.90
53802;DHT22;39709;53.334;6.534;2023-03-01T07:26:37;-3.20;99.90
53802;DHT22;39709;53.334;6.534;2023-03-01T07:29:05;-2.60;99.90
53802;DHT22;39709;53.334;6.534;2023-03-01T07:31:31;-2.40;99.90
53802;DHT22;39709;53.334;6.534;2023-03-01T07:33:57;-3.10;99.90
53802;DHT22;39709;53.334;6.534;2023-03-01T07:36:23;-3.10;99.90
53802;DHT22;39709;53.334;6.534;2023-03-01T07:38:49;-3.20;99.90
53802;DHT22;39709;53.334;6.534;2023-03-01T07:41:15;-2.60;99.90
53802;DHT22;39709;53.334;6.534;2023-03-01T07:43:40;-2.40;99.90
53802;DHT22;39709;53.334;6.534;2023-03-01T07:46:06;-3.10;99.90
53802;DHT22;39709;53.334;6.534;2023-03-01T07:48:33;-2.90;99.90
53802;DHT22;39709;53.334;6.534;2023-03-01T07:51:02;-2.60;99.90
53802;DHT22;39709;53.334;6.534;2023-03-01T07:53:28;-2.80;99.90
53802;DHT22;39709;53.334;6.534;2023-03-01T07:56:12;-2.00;99.90
53802;DHT22;39709;53.334;6.534;2023-03-01T07:58:41;-2.30;99.90
53802;DHT22;39709;53.334;6.534;2023-03-01T08:01:09;-2.30;99.90
53802;DHT22;39709;53.334;6.534;2023-03-01T08:03:36;-2.10;99.90
53802;DHT22;39709;53.334;6.534;2023-03-01T08:06:05;-1.80;99.90
53802;DHT22;39709;53.334;6.534;2023-03-01T08:08:31;-1.30;99.90
53802;DHT22;39709;53.334;6.534;2023-03-01T08:10:58;-1.90;99.90
53802;DHT22;39709;53.334;6.534;2023-03-01T08:13:23;-1.90;99.90
53802;DHT22;39709;53.334;6.534;2023-03-01T08:15:49;-1.70;99.90
53802;DHT22;39709;53.334;6.534;2023-03-01T08:18:19;-1.20;99.90
53802;DHT22;39709;53.334;6.534;2023-03-01T08:20:45;-1.20;99.90
53802;DHT22;39709;53.334;6.534;2023-03-01T08:23:11;-0.70;99.90
53802;DHT22;39709;53.334;6.534;2023-03-01T08:25:37;-0.70;99.90
53802;DHT22;39709;53.334;6.534;2023-03-01T08:28:03;-0.90;99.90
53802;DHT22;39709;53.334;6.534;2023-03-01T08:30:29;-0.50;99.90
53802;DHT22;39709;53.334;6.534;2023-03-01T08:32:55;-0.80;99.90
53802;DHT22;39709;53.334;6.534;2023-03-01T08:35:21;-0.70;99.90
53802;DHT22;39709;53.334;6.534;2023-03-01T08:37:47;-0.60;99.90
53802;DHT22;39709;53.334;6.534;2023-03-01T08:40:13;-0.40;99.90
53802;DHT22;39709;53.334;6.534;2023-03-01T08:42:42;0.10;99.90
53802;DHT22;39709;53.334;6.534;2023-03-01T08:45:09;0.20;99.90
53802;DHT22;39709;53.334;6.534;2023-03-01T08:47:36;-0.20;99.90
53802;DHT22;39709;53.334;6.534;2023-03-01T08:50:02;0.40;99.90
53802;DHT22;39709;53.334;6.534;2023-03-01T08:52:28;0.60;99.90
53802;DHT22;39709;53.334;6.534;2023-03-01T08:54:55;0.60;99.90
53802;DHT22;39709;53.334;6.534;2023-03-01T08:57:22;0.30;99.90
53802;DHT22;39709;53.334;6.534;2023-03-01T08:59:47;0.20;99.90
53802;DHT22;39709;53.334;6.534;2023-03-01T09:02:16;0.30;99.90
53802;DHT22;39709;53.334;6.534;2023-03-01T09:04:42;0.70;99.90
53802;DHT22;39709;53.334;6.534;2023-03-01T09:07:08;0.50;99.90
53802;DHT22;39709;53.334;6.534;2023-03-01T09:09:34;0.60;99.90
53802;DHT22;39709;53.334;6.534;2023-03-01T09:12:01;1.10;99.90
53802;DHT22;39709;53.334;6.534;2023-03-01T09:14:27;0.90;99.90
53802;DHT22;39709;53.334;6.534;2023-03-01T09:16:52;0.90;99.90
53802;DHT22;39709;53.334;6.534;2023-03-01T09:19:18;1.10;99.90
53802;DHT22;39709;53.334;6.534;2023-03-01T09:21:44;1.10;99.90
53802;DHT22;39709;53.334;6.534;2023-03-01T09:24:18;1.60;99.90
53802;DHT22;39709;53.334;6.534;2023-03-01T09:26:45;1.60;97.60
53802;DHT22;39709;53.334;6.534;2023-03-01T09:29:14;1.60;95.00
53802;DHT22;39709;53.334;6.534;2023-03-01T09:31:40;2.00;95.80
53802;DHT22;39709;53.334;6.534;2023-03-01T09:34:06;2.00;57.40
53802;DHT22;39709;53.334;6.534;2023-03-01T09:36:32;1.80;28.90
53802;DHT22;39709;53.334;6.534;2023-03-01T09:38:58;2.10;11.00
53802;DHT22;39709;53.334;6.534;2023-03-01T09:44:30;2.30;1.00
53802;DHT22;39709;53.334;6.534;2023-03-01T09:47:00;2.30;1.00
53802;DHT22;39709;53.334;6.534;2023-03-01T09:49:39;2.50;1.00
53802;DHT22;39709;53.334;6.534;2023-03-01T09:54:53;2.80;1.00
53802;DHT22;39709;53.334;6.534;2023-03-01T09:57:55;2.80;1.00
53802;DHT22;39709;53.334;6.534;2023-03-01T10:00:44;2.80;1.00
53802;DHT22;39709;53.334;6.534;2023-03-01T10:03:44;2.70;1.00
53802;DHT22;39709;53.334;6.534;2023-03-01T10:06:21;2.90;1.00
53802;DHT22;39709;53.334;6.534;2023-03-01T10:09:02;3.00;1.00
53802;DHT22;39709;53.334;6.534;2023-03-01T10:11:32;2.90;1.00
53802;DHT22;39709;53.334;6.534;2023-03-01T10:17:04;2.80;1.00
53802;DHT22;39709;53.334;6.534;2023-03-01T10:19:43;3.00;1.00
53802;DHT22;39709;53.334;6.534;2023-03-01T10:22:18;2.90;1.00
53802;DHT22;39709;53.334;6.534;2023-03-01T10:24:47;3.10;1.00
53802;DHT22;39709;53.334;6.534;2023-03-01T10:27:24;3.10;1.00
53802;DHT22;39709;53.334;6.534;2023-03-01T10:30:13;3.10;1.00
53802;DHT22;39709;53.334;6.534;2023-03-01T10:32:43;3.30;1.00
53802;DHT22;39709;53.334;6.534;2023-03-01T10:35:29;3.30;1.00
53802;DHT22;39709;53.334;6.534;2023-03-01T10:40:30;3.40;1.00
53802;DHT22;39709;53.334;6.534;2023-03-01T10:43:01;3.50;1.00
53802;DHT22;39709;53.334;6.534;2023-03-01T10:48:17;3.70;1.00
53802;DHT22;39709;53.334;6.534;2023-03-01T10:50:46;3.50;1.00
53802;DHT22;39709;53.334;6.534;2023-03-01T10:53:32;3.50;1.00
53802;DHT22;39709;53.334;6.534;2023-03-01T10:58:24;3.90;1.00
53802;DHT22;39709;53.334;6.534;2023-03-01T11:00:55;4.10;1.00
53802;DHT22;39709;53.334;6.534;2023-03-01T11:03:42;3.90;1.00
53802;DHT22;39709;53.334;6.534;2023-03-01T11:08:39;4.40;21.50
53802;DHT22;39709;53.334;6.534;2023-03-01T11:11:26;4.70;39.80
53802;DHT22;39709;53.334;6.534;2023-03-01T11:14:15;4.20;12.40
53802;DHT22;39709;53.334;6.534;2023-03-01T11:16:43;4.10;1.00
53802;DHT22;39709;53.334;6.534;2023-03-01T11:27:02;4.40;1.00
53802;DHT22;39709;53.334;6.534;2023-03-01T11:32:42;4.50;12.90
53802;DHT22;39709;53.334;6.534;2023-03-01T11:35:35;4.50;16.90
53802;DHT22;39709;53.334;6.534;2023-03-01T11:38:25;4.40;1.00
53802;DHT22;39709;53.334;6.534;2023-03-01T11:41:07;4.70;7.20
53802;DHT22;39709;53.334;6.534;2023-03-01T11:43:50;4.70;8.20
53802;DHT22;39709;53.334;6.534;2023-03-01T12:10:27;5.30;46.30
53802;DHT22;39709;53.334;6.534;2023-03-01T12:15:46;5.10;1.00
53802;DHT22;39709;53.334;6.534;2023-03-01T12:26:34;5.50;60.40
53802;DHT22;39709;53.334;6.534;2023-03-01T12:29:14;5.70;70.40
53802;DHT22;39709;53.334;6.534;2023-03-01T12:31:50;5.70;61.60
53802;DHT22;39709;53.334;6.534;2023-03-01T12:34:23;6.00;36.80
53802;DHT22;39709;53.334;6.534;2023-03-01T12:37:21;5.80;63.20
53802;DHT22;39709;53.334;6.534;2023-03-01T12:39:56;5.70;70.70
53802;DHT22;39709;53.334;6.534;2023-03-01T12:48:03;6.00;45.30
53802;DHT22;39709;53.334;6.534;2023-03-01T12:50:57;6.10;39.00
53802;DHT22;39709;53.334;6.534;2023-03-01T12:53:27;6.00;44.90
53802;DHT22;39709;53.334;6.534;2023-03-01T12:56:05;6.20;39.30
53802;DHT22;39709;53.334;6.534;2023-03-01T12:58:39;6.20;33.40
53802;DHT22;39709;53.334;6.534;2023-03-01T13:01:19;6.30;29.10
53802;DHT22;39709;53.334;6.534;2023-03-01T13:10:06;6.50;1.00
53802;DHT22;39709;53.334;6.534;2023-03-01T13:18:41;6.60;1.00
53802;DHT22;39709;53.334;6.534;2023-03-01T13:30:58;6.90;1.00
53802;DHT22;39709;53.334;6.534;2023-03-01T13:35:54;6.80;1.00
53802;DHT22;39709;53.334;6.534;2023-03-01T13:38:44;6.90;1.00
53802;DHT22;39709;53.334;6.534;2023-03-01T13:41:13;6.90;1.00
53802;DHT22;39709;53.334;6.534;2023-03-01T13:43:41;7.00;1.00
53802;DHT22;39709;53.334;6.534;2023-03-01T13:46:20;6.90;1.00
53802;DHT22;39709;53.334;6.534;2023-03-01T13:48:50;6.90;1.00
53802;DHT22;39709;53.334;6.534;2023-03-01T13:51:26;7.00;1.00
53802;DHT22;39709;53.334;6.534;2023-03-01T13:53:54;7.00;1.00
53802;DHT22;39709;53.334;6.534;2023-03-01T13:56:37;7.10;1.00
53802;DHT22;39709;53.334;6.534;2023-03-01T13:59:06;7.10;1.00
53802;DHT22;39709;53.334;6.534;2023-03-01T14:01:38;6.90;1.00
53802;DHT22;39709;53.334;6.534;2023-03-01T14:04:21;6.80;1.00
53802;DHT22;39709;53.334;6.534;2023-03-01T14:06:48;7.00;1.00
53802;DHT22;39709;53.334;6.534;2023-03-01T14:09:22;7.10;1.00
53802;DHT22;39709;53.334;6.534;2023-03-01T14:11:56;7.20;1.00
53802;DHT22;39709;53.334;6.534;2023-03-01T14:17:35;7.00;1.00
53802;DHT22;39709;53.334;6.534;2023-03-01T14:20:18;7.30;1.00
53802;DHT22;39709;53.334;6.534;2023-03-01T14:22:46;7.30;1.00
53802;DHT22;39709;53.334;6.534;2023-03-01T14:25:26;7.30;1.00
53802;DHT22;39709;53.334;6.534;2023-03-01T14:28:19;7.20;1.00
53802;DHT22;39709;53.334;6.534;2023-03-01T14:30:50;7.10;1.00
53802;DHT22;39709;53.334;6.534;2023-03-01T14:36:13;7.10;1.00
53802;DHT22;39709;53.334;6.534;2023-03-01T14:38:41;7.20;1.00
53802;DHT22;39709;53.334;6.534;2023-03-01T14:43:45;7.10;1.00
53802;DHT22;39709;53.334;6.534;2023-03-01T14:48:58;7.40;1.00
53802;DHT22;39709;53.334;6.534;2023-03-01T14:51:26;7.30;1.00
53802;DHT22;39709;53.334;6.534;2023-03-01T14:53:52;7.40;1.00
53802;DHT22;39709;53.334;6.534;2023-03-01T14:56:19;7.50;1.00
53802;DHT22;39709;53.334;6.534;2023-03-01T14:58:45;7.40;1.00
53802;DHT22;39709;53.334;6.534;2023-03-01T15:01:17;7.30;1.00
53802;DHT22;39709;53.334;6.534;2023-03-01T15:06:11;7.50;1.00
53802;DHT22;39709;53.334;6.534;2023-03-01T15:08:44;6.90;99.90
53802;DHT22;39709;53.334;6.534;2023-03-01T15:13:50;7.20;1.00
53802;DHT22;39709;53.334;6.534;2023-03-01T15:16:31;6.50;99.90
53802;DHT22;39709;53.334;6.534;2023-03-01T15:19:03;6.70;99.90
53802;DHT22;39709;53.334;6.534;2023-03-01T15:21:35;6.50;99.90
53802;DHT22;39709;53.334;6.534;2023-03-01T15:26:42;6.40;1.00
53802;DHT22;39709;53.334;6.534;2023-03-01T15:29:17;6.40;1.00
53802;DHT22;39709;53.334;6.534;2023-03-01T15:32:04;6.20;1.00
53802;DHT22;39709;53.334;6.534;2023-03-01T15:34:34;6.70;1.00
53802;DHT22;39709;53.334;6.534;2023-03-01T15:37:03;6.10;1.00
53802;DHT22;39709;53.334;6.534;2023-03-01T15:41:57;6.60;1.00
53802;DHT22;39709;53.334;6.534;2023-03-01T15:44:28;6.10;1.00
53802;DHT22;39709;53.334;6.534;2023-03-01T15:46:54;6.50;1.00
53802;DHT22;39709;53.334;6.534;2023-03-01T15:49:37;6.20;1.00
53802;DHT22;39709;53.334;6.534;2023-03-01T15:52:06;6.50;1.00
53802;DHT22;39709;53.334;6.534;2023-03-01T15:54:35;6.10;1.00
53802;DHT22;39709;53.334;6.534;2023-03-01T15:57:01;6.20;1.00
53802;DHT22;39709;53.334;6.534;2023-03-01T15:59:26;5.80;1.00
53802;DHT22;39709;53.334;6.534;2023-03-01T16:01:52;6.10;1.00
53802;DHT22;39709;53.334;6.534;2023-03-01T16:04:19;5.90;1.00
53802;DHT22;39709;53.334;6.534;2023-03-01T16:06:49;6.00;1.00
53802;DHT22;39709;53.334;6.534;2023-03-01T16:09:23;6.00;1.00
53802;DHT22;39709;53.334;6.534;2023-03-01T16:11:49;5.70;1.00
53802;DHT22;39709;53.334;6.534;2023-03-01T16:14:15;6.00;1.00
53802;DHT22;39709;53.334;6.534;2023-03-01T16:16:42;5.90;1.00
53802;DHT22;39709;53.334;6.534;2023-03-01T16:19:08;5.70;1.00
53802;DHT22;39709;53.334;6.534;2023-03-01T16:21:33;5.20;1.00
53802;DHT22;39709;53.334;6.534;2023-03-01T16:24:00;5.30;1.00
53802;DHT22;39709;53.334;6.534;2023-03-01T16:26:25;5.50;1.00
53802;DHT22;39709;53.334;6.534;2023-03-01T16:28:55;5.30;1.00
53802;DHT22;39709;53.334;6.534;2023-03-01T16:31:22;5.50;1.00
53802;DHT22;39709;53.334;6.534;2023-03-01T16:33:48;5.60;1.00
53802;DHT22;39709;53.334;6.534;2023-03-01T16:36:19;5.20;1.00
53802;DHT22;39709;53.334;6.534;2023-03-01T16:38:45;5.20;1.00
53802;DHT22;39709;53.334;6.534;2023-03-01T16:41:13;5.70;1.00
53802;DHT22;39709;53.334;6.534;2023-03-01T16:43:39;5.00;1.00
53802;DHT22;39709;53.334;6.534;2023-03-01T16:46:14;5.60;7.30
53802;DHT22;39709;53.334;6.534;2023-03-01T16:48:40;5.10;1.00
53802;DHT22;39709;53.334;6.534;2023-03-01T16:51:07;4.80;1.00
53802;DHT22;39709;53.334;6.534;2023-03-01T16:53:34;4.60;1.00
53802;DHT22;39709;53.334;6.534;2023-03-01T16:56:02;5.10;1.00
53802;DHT22;39709;53.334;6.534;2023-03-01T16:58:28;4.90;1.00
53802;DHT22;39709;53.334;6.534;2023-03-01T17:00:55;4.20;16.50
53802;DHT22;39709;53.334;6.534;2023-03-01T17:03:23;4.60;28.50
53802;DHT22;39709;53.334;6.534;2023-03-01T17:05:49;4.70;41.80
53802;DHT22;39709;53.334;6.534;2023-03-01T17:08:16;4.00;54.90
53802;DHT22;39709;53.334;6.534;2023-03-01T17:10:42;4.10;63.40
53802;DHT22;39709;53.334;6.534;2023-03-01T17:13:09;3.80;66.30
53802;DHT22;39709;53.334;6.534;2023-03-01T17:15:39;4.70;70.20
53802;DHT22;39709;53.334;6.534;2023-03-01T17:18:06;4.40;75.80
53802;DHT22;39709;53.334;6.534;2023-03-01T17:20:31;4.30;96.10
53802;DHT22;39709;53.334;6.534;2023-03-01T17:22:57;4.60;99.90
53802;DHT22;39709;53.334;6.534;2023-03-01T17:25:23;3.90;82.20
53802;DHT22;39709;53.334;6.534;2023-03-01T17:27:49;3.90;78.30
53802;DHT22;39709;53.334;6.534;2023-03-01T17:30:15;4.30;99.90
53802;DHT22;39709;53.334;6.534;2023-03-01T17:32:41;4.40;99.90
53802;DHT22;39709;53.334;6.534;2023-03-01T17:35:07;4.40;99.90
53802;DHT22;39709;53.334;6.534;2023-03-01T17:37:33;4.10;95.10
53802;DHT22;39709;53.334;6.534;2023-03-01T17:39:59;3.80;58.40
53802;DHT22;39709;53.334;6.534;2023-03-01T17:42:24;4.30;63.80
53802;DHT22;39709;53.334;6.534;2023-03-01T17:44:50;3.60;98.00
53802;DHT22;39709;53.334;6.534;2023-03-01T17:47:16;4.30;99.90
53802;DHT22;39709;53.334;6.534;2023-03-01T17:49:42;4.40;99.90
53802;DHT22;39709;53.334;6.534;2023-03-01T17:52:07;4.30;99.90
53802;DHT22;39709;53.334;6.534;2023-03-01T17:54:33;4.30;99.90
53802;DHT22;39709;53.334;6.534;2023-03-01T17:56:59;4.00;99.90
53802;DHT22;39709;53.334;6.534;2023-03-01T17:59:25;4.40;99.90
53802;DHT22;39709;53.334;6.534;2023-03-01T18:01:56;4.10;99.90